Time;durP1;ratioP1;P1;durP2;ratioP2;P2;SDS_P1;SDS_P2;PMS_P1;PMS_P2;Temp;Humidity;BMP_temperature;BMP_pressure;BME280_temperature;BME280_humidity;BME280_pressure;Samples;Min_cycle;Max_cycle;Signal;HPM_P1;HPM_P2
2022/04/02 00:00:12;;;;;;;14.02;4.75;;;;;;;2.60;100.00;100923.66;5079791;28;20564;-72
2022/04/02 00:02:39;;;;;;;19.60;5.07;;;;;;;2.60;100.00;100921.72;5076709;28;20052;-71
2022/04/02 00:05:06;;;;;;;12.63;4.30;;;;;;;2.59;100.00;100931.06;5079416;28;20148;-71
2022/04/02 00:07:32;;;;;;;11.10;4.60;;;;;;;2.57;100.00;100925.13;5072108;28;20053;-72
2022/04/02 00:09:59;;;;;;;11.00;3.67;;;;;;;2.56;100.00;100915.34;5070298;28;20120;-71
2022/04/02 00:12:26;;;;;;;10.85;3.97;;;;;;;2.59;100.00;100924.78;5068862;28;20140;-72
2022/04/02 00:14:52;;;;;;;12.88;4.50;;;;;;;2.57;100.00;100921.59;5071174;28;20501;-72
2022/04/02 00:17:19;;;;;;;11.75;4.22;;;;;;;2.59;100.00;100927.50;5074728;28;20044;-71
2022/04/02 00:19:46;;;;;;;11.52;4.18;;;;;;;2.59;100.00;100922.03;5069843;28;20075;-71
2022/04/02 00:22:13;;;;;;;12.52;4.22;;;;;;;2.57;100.00;100927.06;5079343;28;20139;-71
2022/04/02 00:24:39;;;;;;;14.38;4.25;;;;;;;2.51;100.00;100912.03;5086742;28;20048;-70
2022/04/02 00:27:06;;;;;;;5.00;2.67;;;;;;;2.55;100.00;100934.78;5072503;28;20495;-71
2022/04/02 00:29:34;;;;;;;10.30;3.90;;;;;;;2.58;100.00;100928.66;5073552;28;20135;-72
2022/04/02 00:32:00;;;;;;;10.13;3.50;;;;;;;2.56;100.00;100923.53;5072112;28;20463;-72
2022/04/02 00:34:27;;;;;;;11.02;4.13;;;;;;;2.58;100.00;100923.19;5080417;28;20527;-72
2022/04/02 00:36:53;;;;;;;11.38;4.15;;;;;;;2.57;100.00;100927.84;5080458;28;20053;-72
2022/04/02 00:39:20;;;;;;;9.77;3.83;;;;;;;2.58;100.00;100934.94;5080318;28;20144;-73
2022/04/02 00:41:46;;;;;;;10.10;3.78;;;;;;;2.59;100.00;100928.31;5074571;28;20101;-71
2022/04/02 00:44:17;;;;;;;11.50;3.67;;;;;;;2.58;100.00;100932.19;5084114;28;20103;-72
2022/04/02 00:46:44;;;;;;;9.52;3.47;;;;;;;2.59;100.00;100941.16;5079502;28;20048;-71
2022/04/02 00:49:13;;;;;;;10.00;4.05;;;;;;;2.59;100.00;100938.44;5080143;28;20416;-71
2022/04/02 00:51:41;;;;;;;7.88;3.30;;;;;;;2.59;100.00;100935.72;5071733;28;20048;-72
2022/04/02 00:54:17;;;;;;;8.88;3.83;;;;;;;2.58;100.00;100934.13;5069372;28;20044;-72
2022/04/02 00:56:44;;;;;;;;;;;;;;;2.62;100.00;100937.75;5073820;28;20044;-73
2022/04/02 00:59:12;;;;;;;9.77;3.65;;;;;;;2.58;100.00;100939.59;5071998;28;19997;-72
2022/04/02 01:01:39;;;;;;;9.77;3.53;;;;;;;2.57;100.00;100946.97;5086776;28;20059;-72
2022/04/02 01:04:06;;;;;;;11.15;4.22;;;;;;;2.61;100.00;100944.38;5078312;28;20156;-72
2022/04/02 01:06:33;;;;;;;8.90;3.88;;;;;;;2.59;100.00;100941.16;5083791;28;20824;-70
2022/04/02 01:09:02;;;;;;;13.80;3.58;;;;;;;2.61;100.00;100949.84;5073755;28;20181;-71
2022/04/02 01:11:43;;;;;;;13.18;4.03;;;;;;;2.62;100.00;100944.03;5067005;28;20501;-70
2022/04/02 01:14:11;;;;;;;9.05;3.30;;;;;;;2.62;100.00;100954.97;5070767;28;20043;-71
2022/04/02 01:16:38;;;;;;;13.52;4.03;;;;;;;2.62;100.00;100952.22;5068898;28;20062;-70
2022/04/02 01:19:05;;;;;;;11.23;4.03;;;;;;;2.63;100.00;100947.53;5070309;28;20605;-71
2022/04/02 01:21:33;;;;;;;10.20;3.85;;;;;;;2.64;100.00;100946.44;5070974;28;20148;-73
2022/04/02 01:24:00;;;;;;;7.63;3.33;;;;;;;2.63;100.00;100942.09;5068802;28;20500;-71
2022/04/02 01:26:28;;;;;;;13.57;3.95;;;;;;;2.65;100.00;100945.28;5082111;28;20872;-71
2022/04/02 01:28:59;;;;;;;11.38;3.60;;;;;;;2.61;100.00;100956.06;5069976;28;20125;-72
2022/04/02 01:31:27;;;;;;;9.93;3.63;;;;;;;2.61;100.00;100950.63;5073543;28;20062;-71
2022/04/02 01:33:54;;;;;;;11.25;3.30;;;;;;;2.61;100.00;100950.63;5081538;28;20052;-72
2022/04/02 01:36:22;;;;;;;14.27;4.13;;;;;;;2.61;100.00;100953.34;5080153;28;20080;-71
2022/04/02 01:38:49;;;;;;;10.52;3.85;;;;;;;2.60;100.00;100951.75;5079113;28;20052;-72
2022/04/02 01:41:16;;;;;;;9.23;3.13;;;;;;;2.60;100.00;100948.25;5080939;28;20638;-71
2022/04/02 01:43:43;;;;;;;13.18;3.22;;;;;;;2.60;100.00;100951.75;5081358;28;20068;-71
2022/04/02 01:46:10;;;;;;;8.13;3.30;;;;;;;2.62;100.00;100956.88;5075369;28;20152;-72
2022/04/02 01:48:38;;;;;;;12.15;3.70;;;;;;;2.59;100.00;100954.81;5067290;28;20102;-71
2022/04/02 01:51:04;;;;;;;7.63;3.20;;;;;;;2.60;100.00;100953.72;5071918;28;20568;-71
2022/04/02 01:53:31;;;;;;;10.65;3.60;;;;;;;2.60;100.00;100953.72;5078037;28;20076;-71
2022/04/02 01:55:59;;;;;;;10.60;3.63;;;;;;;2.59;100.00;100957.56;5081433;28;20706;-73
2022/04/02 01:58:26;;;;;;;6.30;3.00;;;;;;;2.59;100.00;100963.03;5080250;28;20087;-71
2022/04/02 02:00:53;;;;;;;6.30;2.97;;;;;;;2.54;100.00;100953.09;5080947;28;20087;-73
2022/04/02 02:03:20;;;;;;;7.93;3.25;;;;;;;2.57;100.00;100959.84;5071222;28;20048;-72
2022/04/02 02:05:47;;;;;;;6.32;2.55;;;;;;;2.56;100.00;100969.16;5088026;28;20067;-71
2022/04/02 02:08:13;;;;;;;5.22;2.45;;;;;;;2.57;100.00;100968.03;5074729;28;20044;-73
2022/04/02 02:10:40;;;;;;;11.85;3.28;;;;;;;2.57;100.00;100963.34;5071614;28;20048;-71
2022/04/02 02:13:06;;;;;;;7.90;3.05;;;;;;;2.56;100.00;100966.44;5069058;28;20048;-72
2022/04/02 02:15:33;;;;;;;11.77;3.50;;;;;;;2.56;100.00;100963.69;5067947;28;20052;-70
2022/04/02 02:17:59;;;;;;;8.68;3.25;;;;;;;2.56;100.00;100963.69;5074366;28;20051;-71
2022/04/02 02:20:26;;;;;;;5.43;2.65;;;;;;;2.55;100.00;100964.84;5087247;28;20066;-72
2022/04/02 02:22:52;;;;;;;7.97;2.97;;;;;;;2.55;100.00;100962.09;5069966;28;20136;-72
2022/04/02 02:25:19;;;;;;;2.20;1.33;;;;;;;2.54;100.00;100966.75;5082078;28;20044;-71
2022/04/02 02:27:47;;;;;;;4.25;2.35;;;;;;;2.54;100.00;100971.44;5082420;28;20044;-72
2022/04/02 02:30:15;;;;;;;9.90;3.25;;;;;;;2.54;100.00;100976.91;5073847;28;20199;-72
2022/04/02 02:32:42;;;;;;;8.18;2.17;;;;;;;2.55;100.00;100973.03;5067163;28;20136;-70
2022/04/02 02:38:09;;;;;;;8.43;2.35;;;;;;;2.55;100.00;100975.75;5078172;28;20137;-70
2022/04/02 02:40:37;;;;;;;12.70;3.22;;;;;;;2.54;100.00;100974.19;5081369;28;20225;-72
2022/04/02 02:43:05;;;;;;;3.78;1.65;;;;;;;2.51;100.00;100975.66;5082732;28;20052;-70
2022/04/02 02:45:32;;;;;;;7.15;2.55;;;;;;;2.52;100.00;100979.97;5071455;28;20049;-70
2022/04/02 02:48:00;;;;;;;9.20;3.40;;;;;;;2.53;100.00;100978.03;5067013;28;20127;-72
2022/04/02 02:50:33;;;;;;;6.95;2.28;;;;;;;2.50;100.00;100978.72;5066883;28;20416;-71
2022/04/02 02:52:59;;;;;;;9.35;3.38;;;;;;;2.51;100.00;100981.13;5070427;28;20135;-72
2022/04/02 02:55:26;;;;;;;5.97;2.55;;;;;;;2.49;100.00;100982.56;5066677;28;20076;-70
2022/04/02 02:57:53;;;;;;;6.13;2.33;;;;;;;2.50;100.00;100982.22;5070300;28;20071;-72
2022/04/02 03:00:19;;;;;;;7.88;3.05;;;;;;;2.51;100.00;100986.59;5069174;28;20052;-72
2022/04/02 03:02:47;;;;;;;11.13;3.05;;;;;;;2.48;100.00;100983.72;5067529;28;20521;-71
2022/04/02 03:05:15;;;;;;;11.43;3.17;;;;;;;2.50;100.00;100984.97;5085891;28;20062;-71
2022/04/02 03:07:50;;;;;;;5.05;2.10;;;;;;;2.51;100.00;100989.31;5086276;28;20075;-71
2022/04/02 03:10:25;;;;;;;6.47;3.22;;;;;;;2.50;100.00;100984.19;5067521;28;20763;-71
2022/04/02 03:12:52;;;;;;;7.87;2.33;;;;;;;2.49;100.00;100985.31;5066631;28;20048;-71
2022/04/02 03:15:20;;;;;;;9.68;3.20;;;;;;;2.52;100.00;100990.09;5075929;28;20316;-71
2022/04/02 03:17:48;;;;;;;9.52;3.03;;;;;;;2.50;100.00;100986.91;5070919;28;20056;-71
2022/04/02 03:20:17;;;;;;;10.40;2.75;;;;;;;2.50;100.00;100995.13;5067971;28;20496;-71
2022/04/02 03:22:45;;;;;;;5.07;2.20;;;;;;;2.48;100.00;100991.91;5066604;28;20060;-70
2022/04/02 03:25:14;;;;;;;5.65;2.70;;;;;;;2.48;99.71;100992.72;5082469;28;20060;-69
2022/04/02 03:27:43;;;;;;;6.97;2.60;;;;;;;2.48;100.00;100995.44;5079700;28;20072;-71
2022/04/02 03:30:11;;;;;;;10.45;3.17;;;;;;;2.50;100.00;101006.81;5080709;28;20508;-70
2022/04/02 03:32:39;;;;;;;9.73;3.38;;;;;;;2.48;100.00;101011.03;5076677;28;20519;-70
2022/04/02 03:35:06;;;;;;;6.65;3.33;;;;;;;2.43;99.92;101003.06;5074873;28;20438;-71
2022/04/02 03:37:37;;;;;;;9.95;2.38;;;;;;;2.46;99.82;101010.56;5076925;28;20085;-72
2022/04/02 03:40:10;;;;;;;5.00;2.38;;;;;;;2.45;100.00;101011.69;5082340;28;20143;-70
2022/04/02 03:42:37;;;;;;;5.38;2.50;;;;;;;2.45;100.00;101019.88;5081463;28;20052;-72
2022/04/02 03:45:05;;;;;;;8.73;2.55;;;;;;;2.45;100.00;101014.41;5076505;28;20048;-70
2022/04/02 03:47:32;;;;;;;7.97;2.88;;;;;;;2.43;100.00;101020.22;5080917;28;20048;-70
2022/04/02 03:49:58;;;;;;;6.90;2.47;;;;;;;2.41;99.41;101011.59;5083653;28;20691;-70
2022/04/02 03:52:26;;;;;;;7.95;2.97;;;;;;;2.44;99.99;101026.50;5070008;28;20053;-71
2022/04/02 03:54:53;;;;;;;6.70;2.40;;;;;;;2.42;99.12;101024.09;5070587;28;20075;-71
2022/04/02 03:57:20;;;;;;;5.60;2.63;;;;;;;2.45;98.92;101022.63;5070789;28;20045;-71
2022/04/02 03:59:47;;;;;;;9.25;3.03;;;;;;;2.43;99.59;101027.63;5072194;28;20119;-70
2022/04/02 04:02:14;;;;;;;6.50;2.38;;;;;;;2.43;99.78;101035.81;5079213;28;20048;-70
2022/04/02 04:04:41;;;;;;;6.05;3.00;;;;;;;2.40;99.37;101020.88;5090102;28;20097;-71
2022/04/02 04:07:08;;;;;;;9.00;2.95;;;;;;;2.43;99.30;101030.38;5080153;28;20144;-73
2022/04/02 04:09:40;;;;;;;6.88;2.78;;;;;;;2.39;99.80;101023.94;5080116;28;20163;-71
2022/04/02 04:12:08;;;;;;;10.80;3.00;;;;;;;2.37;99.85;101027.00;5080417;28;20091;-71
2022/04/02 04:14:35;;;;;;;7.70;2.47;;;;;;;2.38;100.00;101034.09;5068287;28;20056;-70
2022/04/02 04:17:01;;;;;;;2.97;1.40;;;;;;;2.39;99.80;101040.34;5070725;28;20132;-70
2022/04/02 04:19:28;;;;;;;10.57;2.90;;;;;;;2.41;100.00;101038.91;5071698;28;20064;-73
2022/04/02 04:21:55;;;;;;;8.25;2.53;;;;;;;2.41;100.00;101049.00;5077661;28;20052;-72
2022/04/02 04:24:22;;;;;;;9.35;3.35;;;;;;;2.42;99.74;101050.59;5081334;28;20685;-72
2022/04/02 04:26:49;;;;;;;3.55;1.67;;;;;;;2.42;100.00;101045.94;5086268;28;20048;-72
2022/04/02 04:29:17;;;;;;;6.40;2.55;;;;;;;2.39;99.20;101051.25;5083289;28;20051;-71
2022/04/02 04:31:44;;;;;;;7.60;2.53;;;;;;;2.41;98.47;101049.00;5081345;28;20512;-72
2022/04/02 04:34:10;;;;;;;6.70;3.05;;;;;;;2.36;99.05;101051.91;5082927;28;20091;-71
2022/04/02 04:36:37;;;;;;;7.82;2.47;;;;;;;2.40;99.06;101055.63;5072132;28;20059;-71
2022/04/02 04:39:05;;;;;;;9.45;2.53;;;;;;;2.42;99.15;101051.41;5080807;28;20044;-71
2022/04/02 04:41:32;;;;;;;8.02;2.22;;;;;;;2.40;99.71;101059.13;5084386;28;20052;-71
2022/04/02 04:43:58;;;;;;;9.43;2.92;;;;;;;2.39;99.25;101064.91;5069860;28;20056;-71
2022/04/02 04:46:25;;;;;;;9.60;3.28;;;;;;;2.39;99.46;101062.19;5069897;28;20623;-70
2022/04/02 04:48:52;;;;;;;4.68;2.30;;;;;;;2.39;98.93;101068.47;5081219;28;20094;-70
2022/04/02 04:51:19;;;;;;;15.35;3.90;;;;;;;2.37;99.20;101064.47;5068999;28;20067;-71
2022/04/02 04:53:46;;;;;;;12.23;2.78;;;;;;;2.35;99.70;101067.53;5070069;28;20052;-72
2022/04/02 04:56:13;;;;;;;8.80;2.85;;;;;;;2.35;100.00;101078.44;5081844;28;20060;-71
2022/04/02 04:58:39;;;;;;;2.13;1.30;;;;;;;2.35;99.64;101080.38;5077310;28;20505;-71
2022/04/02 05:01:07;;;;;;;6.63;3.15;;;;;;;2.37;99.34;101087.09;5070268;28;20060;-72
2022/04/02 05:03:34;;;;;;;6.40;2.90;;;;;;;2.35;99.66;101083.09;5075289;28;20131;-70
2022/04/02 05:06:01;;;;;;;11.18;3.47;;;;;;;2.37;99.43;101089.81;5089836;28;20048;-72
2022/04/02 05:08:31;;;;;;;10.95;3.30;;;;;;;2.37;99.86;101080.84;5086012;28;20612;-70
2022/04/02 05:10:59;;;;;;;9.07;3.10;;;;;;;2.38;99.69;101093.38;5073361;28;20056;-70
2022/04/02 05:13:27;;;;;;;7.70;3.10;;;;;;;2.39;99.78;101089.50;5069083;28;20052;-73
2022/04/02 05:15:54;;;;;;;9.60;3.17;;;;;;;2.39;99.51;101101.22;5069513;28;20076;-73
2022/04/02 05:18:20;;;;;;;7.97;2.47;;;;;;;2.39;100.00;101093.03;5069877;28;20045;-73
2022/04/02 05:20:47;;;;;;;7.25;2.78;;;;;;;2.39;99.40;101095.75;5067488;28;20565;-71
2022/04/02 05:23:14;;;;;;;7.75;2.95;;;;;;;2.42;99.44;101102.47;5080012;28;20354;-72
2022/04/02 05:25:41;;;;;;;8.43;2.95;;;;;;;2.40;98.43;101104.75;5082653;28;20136;-71
2022/04/02 05:28:07;;;;;;;7.65;3.33;;;;;;;2.42;97.77;101107.94;5084487;28;20062;-70
2022/04/02 05:30:37;;;;;;;5.53;2.67;;;;;;;2.44;98.38;101102.97;5072275;28;20052;-71
2022/04/02 05:33:04;;;;;;;10.35;3.42;;;;;;;2.45;98.03;101110.00;5068306;28;20060;-70
2022/04/02 05:35:51;;;;;;;4.90;2.33;;;;;;;2.43;97.63;101106.84;5071260;28;20417;-70
2022/04/02 05:38:17;;;;;;;2.03;1.38;;;;;;;2.43;97.74;101110.34;5077383;28;20052;-71
2022/04/02 05:40:44;;;;;;;8.25;3.50;;;;;;;2.46;98.38;101117.88;5078945;28;20869;-70
2022/04/02 05:43:10;;;;;;;6.35;3.00;;;;;;;2.48;98.61;101120.28;5075949;28;20493;-71
2022/04/02 05:45:37;;;;;;;6.97;2.92;;;;;;;2.48;97.59;101114.81;5079761;28;20523;-72
2022/04/02 05:48:04;;;;;;;10.02;3.47;;;;;;;2.52;97.96;101126.66;5068904;28;20060;-70
2022/04/02 05:50:31;;;;;;;7.97;2.95;;;;;;;2.51;97.28;101125.88;5072813;28;20086;-71
2022/04/02 05:53:04;;;;;;;8.32;3.20;;;;;;;2.49;97.19;101128.13;5071764;28;20546;-72
2022/04/02 05:55:32;;;;;;;7.60;3.28;;;;;;;2.50;97.72;101137.91;5072972;28;20052;-73
2022/04/02 05:57:59;;;;;;;7.57;2.90;;;;;;;2.51;98.27;101142.28;5068631;28;20055;-71
2022/04/02 06:00:27;;;;;;;9.93;3.60;;;;;;;2.52;97.31;101141.13;5073618;28;20135;-70
2022/04/02 06:02:58;;;;;;;12.57;3.33;;;;;;;2.56;96.91;101144.78;5072638;28;20064;-70
2022/04/02 06:05:24;;;;;;;10.55;3.45;;;;;;;2.56;97.65;101150.25;5077510;28;20534;-70
2022/04/02 06:07:51;;;;;;;6.13;2.63;;;;;;;2.61;97.29;101154.72;5076104;28;20098;-72
2022/04/02 06:10:17;;;;;;;9.30;3.47;;;;;;;2.61;97.03;101157.47;5068991;28;20584;-72
2022/04/02 06:12:44;;;;;;;5.65;2.78;;;;;;;2.64;96.47;101163.03;5067451;28;20075;-72
2022/04/02 06:15:10;;;;;;;7.43;2.45;;;;;;;2.67;96.72;101165.09;5072184;28;20056;-72
2022/04/02 06:17:37;;;;;;;7.82;3.40;;;;;;;2.69;96.05;101156.56;5068332;28;20527;-73
2022/04/02 06:20:06;;;;;;;9.23;3.20;;;;;;;2.71;95.93;101163.31;5067031;28;20213;-71
2022/04/02 06:22:32;;;;;;;9.55;3.28;;;;;;;2.68;95.58;101164.00;5069176;28;20579;-72
2022/04/02 06:24:59;;;;;;;9.43;3.50;;;;;;;2.74;95.15;101170.84;5080777;28;20048;-72
2022/04/02 06:27:25;;;;;;;4.90;1.55;;;;;;;2.79;95.46;101175.31;5082506;28;20127;-73
2022/04/02 06:29:52;;;;;;;9.73;3.53;;;;;;;2.81;95.02;101178.50;5073893;28;20064;-73
2022/04/02 06:32:21;;;;;;;3.53;1.20;;;;;;;2.82;95.93;101180.09;5076947;28;20131;-73
2022/04/02 06:34:47;;;;;;;9.63;3.92;;;;;;;2.81;94.32;101183.97;5086168;28;20083;-72
2022/04/02 06:37:14;;;;;;;4.60;2.53;;;;;;;2.87;94.94;101177.16;5075267;28;20087;-72
2022/04/02 06:39:41;;;;;;;9.55;3.53;;;;;;;2.90;94.31;101181.19;5083421;28;20047;-74
2022/04/02 06:42:08;;;;;;;9.73;3.15;;;;;;;2.91;94.61;101183.56;5068148;28;20521;-71
2022/04/02 06:44:34;;;;;;;6.38;2.35;;;;;;;2.95;94.49;101195.44;5068233;28;20066;-75
2022/04/02 06:47:01;;;;;;;8.00;3.13;;;;;;;2.97;93.62;101193.16;5081099;28;20074;-72
2022/04/02 06:49:28;;;;;;;4.25;1.80;;;;;;;2.98;93.63;101196.69;5088230;28;20044;-72
2022/04/02 06:51:54;;;;;;;10.27;3.35;;;;;;;3.05;94.24;101199.69;5087087;28;20790;-71
2022/04/02 06:54:21;;;;;;;5.53;1.95;;;;;;;3.07;94.30;101209.13;5088437;28;20219;-73
2022/04/02 06:56:48;;;;;;;5.32;2.80;;;;;;;3.07;93.67;101203.66;5069285;28;20041;-72
2022/04/02 06:59:15;;;;;;;7.22;3.30;;;;;;;3.12;94.44;101198.00;5075891;28;20053;-74
2022/04/02 07:01:41;;;;;;;7.20;2.97;;;;;;;3.17;93.60;101207.94;5089188;28;20052;-72
2022/04/02 07:04:08;;;;;;;7.90;3.58;;;;;;;3.21;93.67;101206.13;5091722;28;20063;-72
2022/04/02 07:06:36;;;;;;;9.85;3.58;;;;;;;3.28;93.91;101211.84;5087616;28;20135;-71
2022/04/02 07:09:04;;;;;;;5.03;2.22;;;;;;;3.30;92.47;101221.31;5082972;28;20056;-72
2022/04/02 07:11:31;;;;;;;2.85;1.30;;;;;;;3.30;90.88;101212.34;5071101;28;20079;-73
2022/04/02 07:13:58;;;;;;;7.72;2.55;;;;;;;3.38;91.37;101220.47;5078836;28;20063;-72
2022/04/02 07:16:27;;;;;;;5.20;2.28;;;;;;;3.36;90.72;101222.72;5076894;28;20075;-75
2022/04/02 07:18:55;;;;;;;3.45;1.80;;;;;;;3.42;91.05;101226.03;5075818;28;20571;-75
2022/04/02 07:21:27;;;;;;;10.07;3.65;;;;;;;3.45;90.58;101207.03;5071084;28;20058;-75
2022/04/02 07:23:56;;;;;;;5.82;2.60;;;;;;;3.49;89.58;101226.28;5082325;28;20139;-76
2022/04/02 07:26:22;;;;;;;10.73;3.50;;;;;;;3.57;90.48;101225.38;5086810;28;20124;-77
2022/04/02 07:28:51;;;;;;;8.95;3.58;;;;;;;3.64;90.28;101234.66;5087117;28;20063;-73
2022/04/02 07:31:17;;;;;;;11.63;3.60;;;;;;;3.70;90.09;101236.03;5079095;28;20139;-72
2022/04/02 07:33:44;;;;;;;8.70;3.65;;;;;;;3.72;88.63;101239.25;5074713;28;20055;-73
2022/04/02 07:36:24;;;;;;;7.80;3.38;;;;;;;3.75;88.75;101246.75;5076328;28;20115;-72
2022/04/02 07:39:23;;;;;;;7.53;2.60;;;;;;;3.77;87.58;101244.50;5078059;28;20052;-72
2022/04/02 07:42:13;;;;;;;8.95;3.35;;;;;;;3.85;88.00;101248.28;5075737;28;20109;-72
2022/04/02 07:44:46;;;;;;;7.65;3.20;;;;;;;3.94;87.05;101254.44;5089339;28;20051;-72
2022/04/02 07:47:14;;;;;;;7.50;3.85;;;;;;;3.99;86.89;101254.22;5092069;27;20052;-72
2022/04/02 07:49:46;;;;;;;8.20;3.17;;;;;;;4.05;86.84;101261.09;5071593;28;20044;-74
2022/04/02 07:52:13;;;;;;;7.90;3.33;;;;;;;4.03;86.36;101263.34;5083250;28;20049;-73
2022/04/02 07:54:42;;;;;;;11.15;3.53;;;;;;;4.13;85.84;101266.47;5071233;28;20048;-73
2022/04/02 07:57:10;;;;;;;3.67;2.17;;;;;;;4.17;84.91;101263.81;5069919;28;20048;-73
2022/04/02 07:59:42;;;;;;;6.13;2.50;;;;;;;4.17;83.30;101272.84;5075197;28;20054;-71
2022/04/02 08:02:36;;;;;;;3.38;1.60;;;;;;;4.20;81.79;101272.19;5069884;28;20056;-73
2022/04/02 08:05:02;;;;;;;10.48;3.40;;;;;;;4.23;80.68;101266.03;5086181;28;20048;-73
2022/04/02 08:07:30;;;;;;;2.78;1.48;;;;;;;4.24;81.31;101275.00;5079125;28;20093;-72
2022/04/02 08:09:59;;;;;;;12.68;4.50;;;;;;;4.30;81.46;101274.47;5081460;28;20051;-73
2022/04/02 08:12:25;;;;;;;8.65;4.00;;;;;;;4.35;81.22;101270.69;5069165;28;20064;-74
2022/04/02 08:14:53;;;;;;;10.50;3.67;;;;;;;4.38;80.98;101273.53;5080710;28;20050;-70
2022/04/02 08:17:21;;;;;;;1.73;1.17;;;;;;;4.42;79.23;101273.69;5074027;28;20499;-72
2022/04/02 08:19:50;;;;;;;7.20;2.97;;;;;;;4.53;78.43;101283.81;5073223;28;20510;-73
2022/04/02 08:22:17;;;;;;;6.82;3.00;;;;;;;4.57;77.41;101272.97;5074638;28;20080;-72
2022/04/02 08:24:44;;;;;;;11.45;4.28;;;;;;;4.65;78.53;101280.25;5082272;28;20115;-73
2022/04/02 08:27:29;;;;;;;9.20;3.65;;;;;;;4.76;80.42;101282.19;5082139;28;20158;-72
2022/04/02 08:30:06;;;;;;;7.80;3.30;;;;;;;4.84;77.72;101291.44;5074377;28;20048;-72
2022/04/02 08:33:10;;;;;;;10.65;4.00;;;;;;;4.93;78.14;101292.13;5066214;28;20512;-74
2022/04/02 08:35:52;;;;;;;10.55;3.47;;;;;;;4.99;76.76;101299.75;5070382;28;20052;-73
2022/04/02 08:38:27;;;;;;;10.35;4.95;;;;;;;5.07;75.83;101306.28;5074438;28;20047;-72
2022/04/02 08:40:59;;;;;;;4.53;2.47;;;;;;;5.02;75.52;101290.03;5085561;28;20648;-72
2022/04/02 08:43:44;;;;;;;8.32;2.65;;;;;;;5.10;73.78;101297.34;5069499;28;20055;-73
2022/04/02 08:46:35;;;;;;;11.63;3.43;;;;;;;5.11;73.82;101297.00;5074865;28;20489;-72
2022/04/02 08:49:30;;;;;;;10.82;4.45;;;;;;;5.20;73.76;101308.63;5077085;28;22231;-73
2022/04/02 08:52:18;;;;;;;7.22;3.53;;;;;;;5.31;74.49;101309.72;5080188;28;20091;-72
2022/04/02 08:55:08;;;;;;;8.43;2.55;;;;;;;5.36;74.52;101314.19;5071193;28;20135;-72
2022/04/02 08:57:55;;;;;;;8.10;3.10;;;;;;;5.36;72.48;101306.75;5078702;28;20044;-72
2022/04/02 09:00:26;;;;;;;8.45;3.42;;;;;;;5.47;72.44;101317.25;5077811;28;20159;-72
2022/04/02 09:03:41;;;;;;;10.88;4.22;;;;;;;5.56;75.04;101324.19;5066391;28;20110;-73
2022/04/02 09:06:26;;;;;;;10.23;4.68;;;;;;;5.61;74.55;101323.94;5037172;28;20087;-73
2022/04/02 09:09:04;;;;;;;11.75;4.40;;;;;;;5.62;74.58;101317.31;5068213;28;20080;-74
2022/04/02 09:12:27;;;;;;;11.88;3.95;;;;;;;5.66;74.95;101325.63;5068901;28;20761;-73
2022/04/02 09:14:59;;;;;;;9.35;4.25;;;;;;;5.76;75.62;101328.69;5035270;28;20143;-73
2022/04/02 09:17:41;;;;;;;10.70;3.63;;;;;;;5.76;74.62;101331.41;5041709;28;20052;-73
2022/04/02 09:20:26;;;;;;;7.68;2.58;;;;;;;5.81;74.28;101331.22;5035662;28;20057;-73
2022/04/02 09:22:58;;;;;;;11.23;4.10;;;;;;;5.84;74.14;101335.19;5027483;28;20056;-72
2022/04/02 09:25:43;;;;;;;14.73;4.75;;;;;;;5.89;74.48;101338.50;5036326;28;20053;-71
2022/04/02 09:28:34;;;;;;;10.48;4.57;;;;;;;5.96;77.17;101330.44;5034991;28;20144;-73
2022/04/02 09:31:22;;;;;;;13.60;5.25;;;;;;;6.06;75.19;101340.91;5035277;28;20658;-73
2022/04/02 09:33:54;;;;;;;15.05;5.50;;;;;;;6.06;74.09;101345.59;5032941;28;20056;-72
2022/04/02 09:36:31;;;;;;;10.88;3.72;;;;;;;6.08;74.74;101338.63;5036376;28;20095;-71
2022/04/02 09:39:20;;;;;;;8.25;3.47;;;;;;;6.08;73.78;101337.81;5030154;28;20275;-74
2022/04/02 09:42:09;;;;;;;18.02;5.63;;;;;;;6.20;75.28;101345.97;5027818;28;20055;-72
2022/04/02 09:45:14;;;;;;;11.70;4.05;;;;;;;6.10;70.69;101346.50;5035006;28;20063;-73
2022/04/02 09:48:23;;;;;;;11.35;3.83;;;;;;;6.29;70.65;101352.13;5070660;28;20467;-72
2022/04/02 09:50:56;;;;;;;7.18;2.88;;;;;;;6.25;68.04;101354.78;5068843;28;20127;-71
2022/04/02 09:53:29;;;;;;;10.40;4.40;;;;;;;6.32;66.59;101363.22;5065286;28;20048;-71
2022/04/02 09:56:20;;;;;;;10.35;4.10;;;;;;;6.34;67.18;101365.63;5068152;28;20564;-72
2022/04/02 09:59:02;;;;;;;11.63;3.58;;;;;;;6.34;65.68;101366.41;5075111;28;20048;-72
2022/04/02 10:02:03;;;;;;;6.13;2.80;;;;;;;6.03;62.50;101365.53;5077363;28;20504;-71
2022/04/02 10:04:52;;;;;;;10.15;3.67;;;;;;;6.08;64.41;101365.28;5075327;28;20911;-72
2022/04/02 10:07:54;;;;;;;4.38;2.47;;;;;;;6.05;64.87;101369.56;5082992;28;20078;-72
2022/04/02 10:10:27;;;;;;;3.05;2.05;;;;;;;6.13;65.40;101382.31;5078934;28;20049;-73
2022/04/02 10:12:55;;;;;;;10.07;3.67;;;;;;;6.24;65.60;101383.41;5068323;28;20681;-72
2022/04/02 10:15:25;;;;;;;11.32;4.57;;;;;;;6.48;69.25;101380.50;5075510;28;20079;-72
2022/04/02 10:17:52;;;;;;;15.18;4.53;;;;;;;6.68;70.04;101384.94;5072460;28;20076;-72
2022/04/02 10:20:21;;;;;;;10.25;4.35;;;;;;;6.72;69.74;101383.06;5079227;28;20055;-71
2022/04/02 10:23:00;;;;;;;13.13;4.63;;;;;;;6.73;69.57;101387.44;5076580;28;20139;-72
2022/04/02 10:25:31;;;;;;;13.25;5.35;;;;;;;6.85;70.34;101389.31;5077961;28;20048;-72
2022/04/02 10:28:01;;;;;;;8.23;4.40;;;;;;;6.86;70.27;101388.16;5059328;28;20142;-74
2022/04/02 10:30:30;;;;;;;13.70;5.45;;;;;;;6.86;72.05;101386.19;5076821;28;20490;-72
2022/04/02 10:33:29;;;;;;;24.55;9.25;;;;;;;6.69;71.59;101377.50;5076768;28;20150;-72
2022/04/02 10:35:57;;;;;;;15.40;6.82;;;;;;;6.50;71.15;101383.72;5070870;28;20127;-72
2022/04/02 10:38:48;;;;;;;12.77;4.72;;;;;;;6.21;75.98;101397.06;5077797;28;20059;-73
2022/04/02 10:41:19;;;;;;;9.63;4.25;;;;;;;6.11;78.54;101389.31;5080422;28;20052;-72
2022/04/02 10:43:51;;;;;;;8.15;3.50;;;;;;;6.09;80.33;101394.34;5071265;28;20056;-73
2022/04/02 10:46:21;;;;;;;10.93;4.90;;;;;;;6.15;82.37;101392.97;5076180;28;20054;-73
2022/04/02 10:48:58;;;;;;;14.07;5.07;;;;;;;6.22;81.55;101387.66;5084964;28;20054;-72
2022/04/02 10:51:27;;;;;;;14.23;5.45;;;;;;;6.23;78.87;101394.75;5070849;28;20090;-72
2022/04/02 10:54:16;;;;;;;14.98;5.38;;;;;;;6.33;80.37;101395.03;5081925;28;20516;-72
2022/04/02 10:56:45;;;;;;;15.02;6.53;;;;;;;6.46;78.29;101382.81;5084147;28;20048;-73
2022/04/02 10:59:14;;;;;;;11.85;5.03;;;;;;;6.60;77.46;101391.44;5075360;28;20108;-73
2022/04/02 11:01:42;;;;;;;20.65;4.75;;;;;;;6.60;76.02;101385.13;5074760;28;20054;-72
2022/04/02 11:04:32;;;;;;;10.55;4.45;;;;;;;6.60;74.64;101393.38;5078112;28;20580;-72
2022/04/02 11:06:58;;;;;;;;;;;;;;;6.43;73.40;101383.53;5085849;28;20095;-72
2022/04/02 11:09:39;;;;;;;10.75;4.57;;;;;;;6.38;75.68;101389.28;5087459;28;19924;-73
2022/04/02 11:12:07;;;;;;;9.77;4.18;;;;;;;6.22;78.36;101390.41;5076277;28;20052;-75
2022/04/02 11:14:38;;;;;;;9.88;4.18;;;;;;;6.13;78.47;101387.00;5073924;28;20140;-74
2022/04/02 11:17:05;;;;;;;8.98;3.38;;;;;;;6.08;80.18;101379.03;5072381;28;20076;-72
2022/04/02 11:22:28;;;;;;;8.48;3.88;;;;;;;6.16;80.03;101378.06;5081975;28;20078;-72
2022/04/02 11:25:08;;;;;;;14.98;6.20;;;;;;;6.12;78.20;101385.41;5083939;28;20051;-72
2022/04/02 11:27:37;;;;;;;7.43;2.75;;;;;;;6.13;79.12;101392.50;5074397;28;20072;-72
2022/04/02 11:30:09;;;;;;;9.85;4.28;;;;;;;6.04;77.13;101402.88;5083950;28;20484;-72
2022/04/02 11:32:43;;;;;;;2.83;1.42;;;;;;;5.99;76.25;101401.16;5081097;28;20045;-73
2022/04/02 11:35:37;;;;;;;9.27;3.53;;;;;;;5.74;77.13;101393.34;5074316;28;20163;-76
2022/04/02 11:38:20;;;;;;;9.63;3.65;;;;;;;5.61;79.50;101410.97;5076707;28;20519;-73
2022/04/02 11:41:01;;;;;;;8.60;3.42;;;;;;;5.55;82.96;101402.19;5073425;28;20110;-72
2022/04/02 11:43:32;;;;;;;16.85;5.43;;;;;;;5.56;84.82;101403.00;5070687;28;20729;-73
2022/04/02 11:46:01;;;;;;;12.38;4.55;;;;;;;5.56;85.14;101406.53;5072556;28;20191;-71
2022/04/02 11:48:36;;;;;;;5.95;2.80;;;;;;;5.61;85.39;101409.06;5074335;28;20135;-72
2022/04/02 11:51:24;;;;;;;14.93;6.00;;;;;;;5.67;85.60;101409.59;5080740;28;20140;-73
2022/04/02 11:53:52;;;;;;;10.60;3.65;;;;;;;5.64;82.01;101402.88;5079302;28;20144;-72